sensor_id;sensor_type;location;lat;lon;timestamp;P1;P2;P0
71221;PMS5003;58965;59.324;18.268;2022-09-16T00:00:49;0;0;
71221;PMS5003;58965;59.324;18.268;2022-09-16T00:03:15;0;0;
71221;PMS5003;58965;59.324;18.268;2022-09-16T00:05:40;0;0;
71221;PMS5003;58965;59.324;18.268;2022-09-16T00:08:04;0;0;
71221;PMS5003;58965;59.324;18.268;2022-09-16T00:10:29;0;0;
71221;PMS5003;58965;59.324;18.268;2022-09-16T00:12:54;0;0;
71221;PMS5003;58965;59.324;18.268;2022-09-16T00:15:20;0;0;
71221;PMS5003;58965;59.324;18.268;2022-09-16T00:17:45;0;0;
71221;PMS5003;58965;59.324;18.268;2022-09-16T00:20:10;0;0;
71221;PMS5003;58965;59.324;18.268;2022-09-16T00:22:35;0;0;
71221;PMS5003;58965;59.324;18.268;2022-09-16T00:25:00;0;0;
71221;PMS5003;58965;59.324;18.268;2022-09-16T00:27:25;0;0;
71221;PMS5003;58965;59.324;18.268;2022-09-16T00:29:50;0;0;
71221;PMS5003;58965;59.324;18.268;2022-09-16T00:32:15;0;0;
71221;PMS5003;58965;59.324;18.268;2022-09-16T00:34:40;0;0;
71221;PMS5003;58965;59.324;18.268;2022-09-16T00:37:05;0;0;
71221;PMS5003;58965;59.324;18.268;2022-09-16T00:39:30;0;0;
71221;PMS5003;58965;59.324;18.268;2022-09-16T00:41:55;0;0;
71221;PMS5003;58965;59.324;18.268;2022-09-16T00:44:54;0;0;
71221;PMS5003;58965;59.324;18.268;2022-09-16T00:46:46;0;0;
71221;PMS5003;58965;59.324;18.268;2022-09-16T00:49:11;0;0;
71221;PMS5003;58965;59.324;18.268;2022-09-16T00:51:36;0;0;
71221;PMS5003;58965;59.324;18.268;2022-09-16T00:54:02;0;0;
71221;PMS5003;58965;59.324;18.268;2022-09-16T00:56:26;0;0;
71221;PMS5003;58965;59.324;18.268;2022-09-16T00:58:52;0;0;
71221;PMS5003;58965;59.324;18.268;2022-09-16T01:01:16;0;0;
71221;PMS5003;58965;59.324;18.268;2022-09-16T01:03:44;0;0;
71221;PMS5003;58965;59.324;18.268;2022-09-16T01:06:06;0;0;
71221;PMS5003;58965;59.324;18.268;2022-09-16T01:08:31;0;0;
71221;PMS5003;58965;59.324;18.268;2022-09-16T01:10:56;0;0;
71221;PMS5003;58965;59.324;18.268;2022-09-16T01:13:21;0;0;
71221;PMS5003;58965;59.324;18.268;2022-09-16T01:15:49;1;0;
71221;PMS5003;58965;59.324;18.268;2022-09-16T01:18:13;0;0;
71221;PMS5003;58965;59.324;18.268;2022-09-16T01:20:50;0;0;
71221;PMS5003;58965;59.324;18.268;2022-09-16T01:24:16;0;0;
71221;PMS5003;58965;59.324;18.268;2022-09-16T01:25:29;0;0;
71221;PMS5003;58965;59.324;18.268;2022-09-16T01:28:30;0;0;
71221;PMS5003;58965;59.324;18.268;2022-09-16T01:30:35;0;0;
71221;PMS5003;58965;59.324;18.268;2022-09-16T01:32:46;0;0;
71221;PMS5003;58965;59.324;18.268;2022-09-16T01:35:09;0;0;
71221;PMS5003;58965;59.324;18.268;2022-09-16T01:37:35;0;0;
71221;PMS5003;58965;59.324;18.268;2022-09-16T01:39:58;0;0;
71221;PMS5003;58965;59.324;18.268;2022-09-16T01:42:24;0;0;
71221;PMS5003;58965;59.324;18.268;2022-09-16T01:44:49;1;0;
71221;PMS5003;58965;59.324;18.268;2022-09-16T01:47:14;2;0;
71221;PMS5003;58965;59.324;18.268;2022-09-16T01:49:40;0;0;
71221;PMS5003;58965;59.324;18.268;2022-09-16T01:52:05;0;0;
71221;PMS5003;58965;59.324;18.268;2022-09-16T01:54:29;1;1;
71221;PMS5003;58965;59.324;18.268;2022-09-16T01:56:54;0;0;
71221;PMS5003;58965;59.324;18.268;2022-09-16T01:59:19;0;0;
71221;PMS5003;58965;59.324;18.268;2022-09-16T02:01:44;0;0;
71221;PMS5003;58965;59.324;18.268;2022-09-16T02:04:10;0;0;
71221;PMS5003;58965;59.324;18.268;2022-09-16T02:06:33;1;1;
71221;PMS5003;58965;59.324;18.268;2022-09-16T02:08:59;0;0;
71221;PMS5003;58965;59.324;18.268;2022-09-16T02:11:24;0;0;
71221;PMS5003;58965;59.324;18.268;2022-09-16T02:13:50;0;0;
71221;PMS5003;58965;59.324;18.268;2022-09-16T02:16:14;0;0;
71221;PMS5003;58965;59.324;18.268;2022-09-16T02:18:39;0;0;
71221;PMS5003;58965;59.324;18.268;2022-09-16T02:21:05;0;0;
71221;PMS5003;58965;59.324;18.268;2022-09-16T02:23:30;0;0;
71221;PMS5003;58965;59.324;18.268;2022-09-16T02:25:54;0;0;
71221;PMS5003;58965;59.324;18.268;2022-09-16T02:28:20;0;0;
71221;PMS5003;58965;59.324;18.268;2022-09-16T02:30:46;0;0;
71221;PMS5003;58965;59.324;18.268;2022-09-16T02:33:09;0;0;
71221;PMS5003;58965;59.324;18.268;2022-09-16T02:35:34;0;0;
71221;PMS5003;58965;59.324;18.268;2022-09-16T02:38:00;0;0;
71221;PMS5003;58965;59.324;18.268;2022-09-16T02:40:26;0;0;
71221;PMS5003;58965;59.324;18.268;2022-09-16T02:42:50;0;0;
71221;PMS5003;58965;59.324;18.268;2022-09-16T02:45:15;0;0;
71221;PMS5003;58965;59.324;18.268;2022-09-16T02:47:41;0;0;
71221;PMS5003;58965;59.324;18.268;2022-09-16T02:50:07;0;0;
71221;PMS5003;58965;59.324;18.268;2022-09-16T02:52:33;0;0;
71221;PMS5003;58965;59.324;18.268;2022-09-16T02:54:59;0;0;
71221;PMS5003;58965;59.324;18.268;2022-09-16T02:57:20;0;0;
71221;PMS5003;58965;59.324;18.268;2022-09-16T02:59:45;0;0;
71221;PMS5003;58965;59.324;18.268;2022-09-16T03:02:11;0;0;
71221;PMS5003;58965;59.324;18.268;2022-09-16T03:04:36;0;0;
71221;PMS5003;58965;59.324;18.268;2022-09-16T03:07:02;0;0;
71221;PMS5003;58965;59.324;18.268;2022-09-16T03:09:26;0;0;
71221;PMS5003;58965;59.324;18.268;2022-09-16T03:12:57;0;0;
71221;PMS5003;58965;59.324;18.268;2022-09-16T03:14:24;0;0;
71221;PMS5003;58965;59.324;18.268;2022-09-16T03:16:43;0;0;
71221;PMS5003;58965;59.324;18.268;2022-09-16T03:19:08;0;0;
71221;PMS5003;58965;59.324;18.268;2022-09-16T03:21:33;0;0;
71221;PMS5003;58965;59.324;18.268;2022-09-16T03:23:59;0;0;
71221;PMS5003;58965;59.324;18.268;2022-09-16T03:26:24;0;0;
71221;PMS5003;58965;59.324;18.268;2022-09-16T03:28:49;0;0;
71221;PMS5003;58965;59.324;18.268;2022-09-16T03:31:13;0;0;
71221;PMS5003;58965;59.324;18.268;2022-09-16T03:33:38;0;0;
71221;PMS5003;58965;59.324;18.268;2022-09-16T03:36:03;0;0;
71221;PMS5003;58965;59.324;18.268;2022-09-16T03:38:27;0;0;
71221;PMS5003;58965;59.324;18.268;2022-09-16T03:40:52;0;0;
71221;PMS5003;58965;59.324;18.268;2022-09-16T03:43:17;0;0;
71221;PMS5003;58965;59.324;18.268;2022-09-16T03:45:43;0;0;
71221;PMS5003;58965;59.324;18.268;2022-09-16T03:48:08;1;0;
71221;PMS5003;58965;59.324;18.268;2022-09-16T03:50:33;0;0;
71221;PMS5003;58965;59.324;18.268;2022-09-16T03:52:58;0;0;
71221;PMS5003;58965;59.324;18.268;2022-09-16T03:55:23;0;0;
71221;PMS5003;58965;59.324;18.268;2022-09-16T03:57:48;0;0;
71221;PMS5003;58965;59.324;18.268;2022-09-16T04:00:13;0;0;
71221;PMS5003;58965;59.324;18.268;2022-09-16T04:02:38;0;0;
71221;PMS5003;58965;59.324;18.268;2022-09-16T04:05:04;0;0;
71221;PMS5003;58965;59.324;18.268;2022-09-16T04:07:30;1;0;
71221;PMS5003;58965;59.324;18.268;2022-09-16T04:09:53;1;1;
71221;PMS5003;58965;59.324;18.268;2022-09-16T04:12:18;0;0;
71221;PMS5003;58965;59.324;18.268;2022-09-16T04:14:44;0;0;
71221;PMS5003;58965;59.324;18.268;2022-09-16T04:17:09;0;0;
71221;PMS5003;58965;59.324;18.268;2022-09-16T04:19:34;1;1;
71221;PMS5003;58965;59.324;18.268;2022-09-16T04:21:59;0;0;
71221;PMS5003;58965;59.324;18.268;2022-09-16T04:24:24;0;0;
71221;PMS5003;58965;59.324;18.268;2022-09-16T04:26:49;1;1;
71221;PMS5003;58965;59.324;18.268;2022-09-16T04:29:14;1;1;
71221;PMS5003;58965;59.324;18.268;2022-09-16T04:31:39;1;1;
71221;PMS5003;58965;59.324;18.268;2022-09-16T04:34:05;1;1;
71221;PMS5003;58965;59.324;18.268;2022-09-16T04:36:30;2;2;
71221;PMS5003;58965;59.324;18.268;2022-09-16T04:38:55;0;0;
71221;PMS5003;58965;59.324;18.268;2022-09-16T04:41:20;1;1;
71221;PMS5003;58965;59.324;18.268;2022-09-16T04:43:45;1;1;
71221;PMS5003;58965;59.324;18.268;2022-09-16T04:46:10;1;1;
71221;PMS5003;58965;59.324;18.268;2022-09-16T04:48:35;1;1;
71221;PMS5003;58965;59.324;18.268;2022-09-16T04:51:01;1;1;
71221;PMS5003;58965;59.324;18.268;2022-09-16T04:53:25;1;1;
71221;PMS5003;58965;59.324;18.268;2022-09-16T04:55:50;1;1;
71221;PMS5003;58965;59.324;18.268;2022-09-16T04:58:16;1;1;
71221;PMS5003;58965;59.324;18.268;2022-09-16T05:00:41;0;0;
71221;PMS5003;58965;59.324;18.268;2022-09-16T05:03:06;1;1;
71221;PMS5003;58965;59.324;18.268;2022-09-16T05:05:31;1;1;
71221;PMS5003;58965;59.324;18.268;2022-09-16T05:07:56;1;1;
71221;PMS5003;58965;59.324;18.268;2022-09-16T05:10:21;1;1;
71221;PMS5003;58965;59.324;18.268;2022-09-16T05:12:49;1;1;
71221;PMS5003;58965;59.324;18.268;2022-09-16T05:15:11;1;1;
71221;PMS5003;58965;59.324;18.268;2022-09-16T05:17:36;1;1;
71221;PMS5003;58965;59.324;18.268;2022-09-16T05:20:02;1;1;
71221;PMS5003;58965;59.324;18.268;2022-09-16T05:22:27;1;1;
71221;PMS5003;58965;59.324;18.268;2022-09-16T05:24:52;2;2;
71221;PMS5003;58965;59.324;18.268;2022-09-16T05:27:17;2;2;
71221;PMS5003;58965;59.324;18.268;2022-09-16T05:29:42;3;3;
71221;PMS5003;58965;59.324;18.268;2022-09-16T05:32:07;5;4;
71221;PMS5003;58965;59.324;18.268;2022-09-16T05:34:32;3;3;
71221;PMS5003;58965;59.324;18.268;2022-09-16T05:36:57;5;5;
71221;PMS5003;58965;59.324;18.268;2022-09-16T05:39:23;5;4;
71221;PMS5003;58965;59.324;18.268;2022-09-16T05:41:48;5;4;
71221;PMS5003;58965;59.324;18.268;2022-09-16T05:44:13;4;4;
71221;PMS5003;58965;59.324;18.268;2022-09-16T05:46:38;4;4;
71221;PMS5003;58965;59.324;18.268;2022-09-16T05:49:03;2;2;
71221;PMS5003;58965;59.324;18.268;2022-09-16T05:51:28;3;3;
71221;PMS5003;58965;59.324;18.268;2022-09-16T05:53:53;3;2;
71221;PMS5003;58965;59.324;18.268;2022-09-16T05:56:19;3;3;
71221;PMS5003;58965;59.324;18.268;2022-09-16T05:58:43;4;4;
71221;PMS5003;58965;59.324;18.268;2022-09-16T06:01:09;1;1;
71221;PMS5003;58965;59.324;18.268;2022-09-16T06:03:35;2;2;
71221;PMS5003;58965;59.324;18.268;2022-09-16T06:05:59;3;3;
71221;PMS5003;58965;59.324;18.268;2022-09-16T06:08:24;1;1;
71221;PMS5003;58965;59.324;18.268;2022-09-16T06:10:49;2;2;
71221;PMS5003;58965;59.324;18.268;2022-09-16T06:13:14;2;2;
71221;PMS5003;58965;59.324;18.268;2022-09-16T06:15:46;7;6;
71221;PMS5003;58965;59.324;18.268;2022-09-16T06:18:05;3;3;
71221;PMS5003;58965;59.324;18.268;2022-09-16T06:20:30;3;2;
71221;PMS5003;58965;59.324;18.268;2022-09-16T06:22:55;3;3;
71221;PMS5003;58965;59.324;18.268;2022-09-16T06:25:20;3;3;
71221;PMS5003;58965;59.324;18.268;2022-09-16T06:27:46;1;1;
71221;PMS5003;58965;59.324;18.268;2022-09-16T06:30:11;2;2;
71221;PMS5003;58965;59.324;18.268;2022-09-16T06:32:36;2;2;
71221;PMS5003;58965;59.324;18.268;2022-09-16T06:35:02;2;2;
71221;PMS5003;58965;59.324;18.268;2022-09-16T06:37:27;3;3;
71221;PMS5003;58965;59.324;18.268;2022-09-16T06:39:52;3;3;
71221;PMS5003;58965;59.324;18.268;2022-09-16T06:42:17;3;3;
71221;PMS5003;58965;59.324;18.268;2022-09-16T06:44:42;5;3;
71221;PMS5003;58965;59.324;18.268;2022-09-16T06:47:07;2;2;
71221;PMS5003;58965;59.324;18.268;2022-09-16T06:49:32;3;3;
71221;PMS5003;58965;59.324;18.268;2022-09-16T06:51:57;3;3;
71221;PMS5003;58965;59.324;18.268;2022-09-16T06:54:22;2;2;
71221;PMS5003;58965;59.324;18.268;2022-09-16T06:56:47;2;2;
71221;PMS5003;58965;59.324;18.268;2022-09-16T06:59:12;1;1;
71221;PMS5003;58965;59.324;18.268;2022-09-16T07:01:38;4;3;
71221;PMS5003;58965;59.324;18.268;2022-09-16T07:04:04;3;3;
71221;PMS5003;58965;59.324;18.268;2022-09-16T07:06:28;3;2;
71221;PMS5003;58965;59.324;18.268;2022-09-16T07:08:53;2;2;
71221;PMS5003;58965;59.324;18.268;2022-09-16T07:11:19;2;2;
71221;PMS5003;58965;59.324;18.268;2022-09-16T07:13:43;3;2;
71221;PMS5003;58965;59.324;18.268;2022-09-16T07:16:09;3;3;
71221;PMS5003;58965;59.324;18.268;2022-09-16T07:18:33;3;3;
71221;PMS5003;58965;59.324;18.268;2022-09-16T07:21:00;1;1;
71221;PMS5003;58965;59.324;18.268;2022-09-16T07:23:23;1;1;
71221;PMS5003;58965;59.324;18.268;2022-09-16T07:25:58;2;1;
71221;PMS5003;58965;59.324;18.268;2022-09-16T07:28:14;1;1;
71221;PMS5003;58965;59.324;18.268;2022-09-16T07:30:39;1;1;
71221;PMS5003;58965;59.324;18.268;2022-09-16T07:33:04;0;0;
71221;PMS5003;58965;59.324;18.268;2022-09-16T07:35:29;2;2;
71221;PMS5003;58965;59.324;18.268;2022-09-16T07:37:54;2;2;
71221;PMS5003;58965;59.324;18.268;2022-09-16T07:40:19;0;0;
71221;PMS5003;58965;59.324;18.268;2022-09-16T07:42:44;2;2;
71221;PMS5003;58965;59.324;18.268;2022-09-16T07:45:10;1;1;
71221;PMS5003;58965;59.324;18.268;2022-09-16T07:47:35;2;2;
71221;PMS5003;58965;59.324;18.268;2022-09-16T07:50:00;2;2;
71221;PMS5003;58965;59.324;18.268;2022-09-16T07:52:25;3;3;
71221;PMS5003;58965;59.324;18.268;2022-09-16T07:54:50;2;2;
71221;PMS5003;58965;59.324;18.268;2022-09-16T07:57:15;2;2;
71221;PMS5003;58965;59.324;18.268;2022-09-16T07:59:40;1;1;
71221;PMS5003;58965;59.324;18.268;2022-09-16T08:02:05;1;1;
71221;PMS5003;58965;59.324;18.268;2022-09-16T08:04:30;1;1;
71221;PMS5003;58965;59.324;18.268;2022-09-16T08:06:55;1;1;
71221;PMS5003;58965;59.324;18.268;2022-09-16T08:09:20;1;1;
71221;PMS5003;58965;59.324;18.268;2022-09-16T08:11:46;2;1;
71221;PMS5003;58965;59.324;18.268;2022-09-16T08:14:11;1;1;
71221;PMS5003;58965;59.324;18.268;2022-09-16T08:16:36;1;1;
71221;PMS5003;58965;59.324;18.268;2022-09-16T08:19:01;1;1;
71221;PMS5003;58965;59.324;18.268;2022-09-16T08:21:26;1;1;
71221;PMS5003;58965;59.324;18.268;2022-09-16T08:23:51;1;1;
71221;PMS5003;58965;59.324;18.268;2022-09-16T08:26:17;1;1;
71221;PMS5003;58965;59.324;18.268;2022-09-16T08:28:42;1;1;
71221;PMS5003;58965;59.324;18.268;2022-09-16T08:31:06;0;0;
71221;PMS5003;58965;59.324;18.268;2022-09-16T08:33:31;1;1;
71221;PMS5003;58965;59.324;18.268;2022-09-16T08:35:57;1;0;
71221;PMS5003;58965;59.324;18.268;2022-09-16T08:38:22;1;1;
71221;PMS5003;58965;59.324;18.268;2022-09-16T08:40:47;1;1;
71221;PMS5003;58965;59.324;18.268;2022-09-16T08:43:13;1;1;
71221;PMS5003;58965;59.324;18.268;2022-09-16T08:45:40;1;1;
71221;PMS5003;58965;59.324;18.268;2022-09-16T08:48:06;0;0;
71221;PMS5003;58965;59.324;18.268;2022-09-16T08:50:28;1;1;
71221;PMS5003;58965;59.324;18.268;2022-09-16T08:52:52;0;0;
71221;PMS5003;58965;59.324;18.268;2022-09-16T08:55:19;0;0;
71221;PMS5003;58965;59.324;18.268;2022-09-16T08:57:44;1;1;
71221;PMS5003;58965;59.324;18.268;2022-09-16T09:00:10;1;1;
71221;PMS5003;58965;59.324;18.268;2022-09-16T09:02:38;0;0;
71221;PMS5003;58965;59.324;18.268;2022-09-16T09:04:58;1;1;
71221;PMS5003;58965;59.324;18.268;2022-09-16T09:07:26;0;0;
71221;PMS5003;58965;59.324;18.268;2022-09-16T09:09:51;0;0;
71221;PMS5003;58965;59.324;18.268;2022-09-16T09:12:14;0;0;
71221;PMS5003;58965;59.324;18.268;2022-09-16T09:14:42;1;1;
71221;PMS5003;58965;59.324;18.268;2022-09-16T09:17:07;0;0;
71221;PMS5003;58965;59.324;18.268;2022-09-16T09:19:36;1;1;
71221;PMS5003;58965;59.324;18.268;2022-09-16T09:21:56;0;0;
71221;PMS5003;58965;59.324;18.268;2022-09-16T09:24:23;0;0;
71221;PMS5003;58965;59.324;18.268;2022-09-16T09:26:45;1;1;
71221;PMS5003;58965;59.324;18.268;2022-09-16T09:29:21;0;0;
71221;PMS5003;58965;59.324;18.268;2022-09-16T09:31:36;0;0;
71221;PMS5003;58965;59.324;18.268;2022-09-16T09:34:00;1;1;
71221;PMS5003;58965;59.324;18.268;2022-09-16T09:36:29;1;1;
71221;PMS5003;58965;59.324;18.268;2022-09-16T09:38:52;0;0;
71221;PMS5003;58965;59.324;18.268;2022-09-16T09:41:15;0;0;
71221;PMS5003;58965;59.324;18.268;2022-09-16T09:43:40;1;1;
71221;PMS5003;58965;59.324;18.268;2022-09-16T09:46:06;1;1;
71221;PMS5003;58965;59.324;18.268;2022-09-16T09:48:31;1;1;
71221;PMS5003;58965;59.324;18.268;2022-09-16T09:50:55;0;0;
71221;PMS5003;58965;59.324;18.268;2022-09-16T09:53:21;1;1;
71221;PMS5003;58965;59.324;18.268;2022-09-16T09:55:45;0;0;
71221;PMS5003;58965;59.324;18.268;2022-09-16T09:58:14;0;0;
71221;PMS5003;58965;59.324;18.268;2022-09-16T10:00:35;0;0;
71221;PMS5003;58965;59.324;18.268;2022-09-16T10:03:01;0;0;
71221;PMS5003;58965;59.324;18.268;2022-09-16T10:05:26;1;1;
71221;PMS5003;58965;59.324;18.268;2022-09-16T10:07:51;0;0;
71221;PMS5003;58965;59.324;18.268;2022-09-16T10:10:16;0;0;
71221;PMS5003;58965;59.324;18.268;2022-09-16T10:12:41;0;0;
71221;PMS5003;58965;59.324;18.268;2022-09-16T10:15:16;0;0;
71221;PMS5003;58965;59.324;18.268;2022-09-16T10:17:31;0;0;
71221;PMS5003;58965;59.324;18.268;2022-09-16T10:19:57;0;0;
71221;PMS5003;58965;59.324;18.268;2022-09-16T10:22:23;1;1;
71221;PMS5003;58965;59.324;18.268;2022-09-16T10:24:52;1;1;
71221;PMS5003;58965;59.324;18.268;2022-09-16T10:27:17;0;0;
71221;PMS5003;58965;59.324;18.268;2022-09-16T10:29:36;0;0;
71221;PMS5003;58965;59.324;18.268;2022-09-16T10:32:03;0;0;
71221;PMS5003;58965;59.324;18.268;2022-09-16T10:34:27;1;1;
71221;PMS5003;58965;59.324;18.268;2022-09-16T10:37:00;1;1;
71221;PMS5003;58965;59.324;18.268;2022-09-16T10:39:20;1;1;
71221;PMS5003;58965;59.324;18.268;2022-09-16T10:41:42;1;1;
71221;PMS5003;58965;59.324;18.268;2022-09-16T10:44:11;1;1;
71221;PMS5003;58965;59.324;18.268;2022-09-16T10:46:32;0;0;
71221;PMS5003;58965;59.324;18.268;2022-09-16T10:48:58;0;0;
71221;PMS5003;58965;59.324;18.268;2022-09-16T10:51:23;1;1;
71221;PMS5003;58965;59.324;18.268;2022-09-16T10:53:50;1;1;
71221;PMS5003;58965;59.324;18.268;2022-09-16T10:56:15;1;1;
71221;PMS5003;58965;59.324;18.268;2022-09-16T10:58:37;1;1;
71221;PMS5003;58965;59.324;18.268;2022-09-16T11:01:06;0;0;
71221;PMS5003;58965;59.324;18.268;2022-09-16T11:03:32;1;1;
71221;PMS5003;58965;59.324;18.268;2022-09-16T11:05:56;0;0;
71221;PMS5003;58965;59.324;18.268;2022-09-16T11:08:20;1;1;
71221;PMS5003;58965;59.324;18.268;2022-09-16T11:10:44;0;0;
71221;PMS5003;58965;59.324;18.268;2022-09-16T11:13:16;0;0;
71221;PMS5003;58965;59.324;18.268;2022-09-16T11:15:37;0;0;
71221;PMS5003;58965;59.324;18.268;2022-09-16T11:18:03;6;4;
71221;PMS5003;58965;59.324;18.268;2022-09-16T11:20:28;8;3;
71221;PMS5003;58965;59.324;18.268;2022-09-16T11:22:51;3;3;
71221;PMS5003;58965;59.324;18.268;2022-09-16T11:25:21;3;1;
71221;PMS5003;58965;59.324;18.268;2022-09-16T11:27:42;4;2;
71221;PMS5003;58965;59.324;18.268;2022-09-16T11:30:08;3;1;
71221;PMS5003;58965;59.324;18.268;2022-09-16T11:32:34;3;1;
71221;PMS5003;58965;59.324;18.268;2022-09-16T11:35:01;2;2;
71221;PMS5003;58965;59.324;18.268;2022-09-16T11:37:22;2;1;
71221;PMS5003;58965;59.324;18.268;2022-09-16T11:39:50;0;0;
71221;PMS5003;58965;59.324;18.268;2022-09-16T11:42:13;0;0;
71221;PMS5003;58965;59.324;18.268;2022-09-16T11:44:38;0;0;
71221;PMS5003;58965;59.324;18.268;2022-09-16T11:47:06;0;0;
71221;PMS5003;58965;59.324;18.268;2022-09-16T11:49:39;1;1;
71221;PMS5003;58965;59.324;18.268;2022-09-16T11:51:56;1;1;
71221;PMS5003;58965;59.324;18.268;2022-09-16T11:54:21;1;1;
71221;PMS5003;58965;59.324;18.268;2022-09-16T11:56:42;1;1;
71221;PMS5003;58965;59.324;18.268;2022-09-16T11:59:10;0;0;
71221;PMS5003;58965;59.324;18.268;2022-09-16T12:01:34;1;1;
71221;PMS5003;58965;59.324;18.268;2022-09-16T12:03:58;1;1;
71221;PMS5003;58965;59.324;18.268;2022-09-16T12:06:23;1;1;
71221;PMS5003;58965;59.324;18.268;2022-09-16T12:08:56;1;0;
71221;PMS5003;58965;59.324;18.268;2022-09-16T12:11:15;1;1;
71221;PMS5003;58965;59.324;18.268;2022-09-16T12:13:38;0;0;
71221;PMS5003;58965;59.324;18.268;2022-09-16T12:16:03;0;0;
71221;PMS5003;58965;59.324;18.268;2022-09-16T12:18:29;0;0;
71221;PMS5003;58965;59.324;18.268;2022-09-16T12:21:04;0;0;
71221;PMS5003;58965;59.324;18.268;2022-09-16T12:23:19;1;1;
71221;PMS5003;58965;59.324;18.268;2022-09-16T12:25:44;0;0;
71221;PMS5003;58965;59.324;18.268;2022-09-16T12:28:11;0;0;
71221;PMS5003;58965;59.324;18.268;2022-09-16T12:30:34;0;0;
71221;PMS5003;58965;59.324;18.268;2022-09-16T12:32:59;1;0;
71221;PMS5003;58965;59.324;18.268;2022-09-16T12:35:25;0;0;
71221;PMS5003;58965;59.324;18.268;2022-09-16T12:37:49;0;0;
71221;PMS5003;58965;59.324;18.268;2022-09-16T12:40:15;0;0;
71221;PMS5003;58965;59.324;18.268;2022-09-16T12:47:08;0;0;
71221;PMS5003;58965;59.324;18.268;2022-09-16T12:49:36;1;0;
71221;PMS5003;58965;59.324;18.268;2022-09-16T12:54:15;1;0;
71221;PMS5003;58965;59.324;18.268;2022-09-16T12:56:39;0;0;
71221;PMS5003;58965;59.324;18.268;2022-09-16T12:59:05;0;0;
71221;PMS5003;58965;59.324;18.268;2022-09-16T13:01:26;0;0;
71221;PMS5003;58965;59.324;18.268;2022-09-16T13:03:51;0;0;
71221;PMS5003;58965;59.324;18.268;2022-09-16T13:06:18;0;0;
71221;PMS5003;58965;59.324;18.268;2022-09-16T13:08:41;0;0;
71221;PMS5003;58965;59.324;18.268;2022-09-16T13:11:06;0;0;
71221;PMS5003;58965;59.324;18.268;2022-09-16T13:13:32;0;0;
71221;PMS5003;58965;59.324;18.268;2022-09-16T13:15:56;0;0;
71221;PMS5003;58965;59.324;18.268;2022-09-16T13:18:22;0;0;
71221;PMS5003;58965;59.324;18.268;2022-09-16T13:20:47;0;0;
71221;PMS5003;58965;59.324;18.268;2022-09-16T13:23:12;0;0;
71221;PMS5003;58965;59.324;18.268;2022-09-16T13:25:42;0;0;
71221;PMS5003;58965;59.324;18.268;2022-09-16T13:28:02;0;0;
71221;PMS5003;58965;59.324;18.268;2022-09-16T13:30:29;0;0;
71221;PMS5003;58965;59.324;18.268;2022-09-16T13:33:00;0;0;
71221;PMS5003;58965;59.324;18.268;2022-09-16T13:35:21;0;0;
71221;PMS5003;58965;59.324;18.268;2022-09-16T13:37:42;0;0;
71221;PMS5003;58965;59.324;18.268;2022-09-16T13:40:08;0;0;
71221;PMS5003;58965;59.324;18.268;2022-09-16T13:42:32;0;0;
71221;PMS5003;58965;59.324;18.268;2022-09-16T13:44:57;0;0;
71221;PMS5003;58965;59.324;18.268;2022-09-16T13:47:28;0;0;
71221;PMS5003;58965;59.324;18.268;2022-09-16T13:49:49;0;0;
71221;PMS5003;58965;59.324;18.268;2022-09-16T13:52:15;0;0;
71221;PMS5003;58965;59.324;18.268;2022-09-16T13:54:39;0;0;
71221;PMS5003;58965;59.324;18.268;2022-09-16T13:57:08;2;1;
71221;PMS5003;58965;59.324;18.268;2022-09-16T13:59:33;0;0;
71221;PMS5003;58965;59.324;18.268;2022-09-16T14:01:57;0;0;
71221;PMS5003;58965;59.324;18.268;2022-09-16T14:04:21;0;0;
71221;PMS5003;58965;59.324;18.268;2022-09-16T14:06:46;0;0;
71221;PMS5003;58965;59.324;18.268;2022-09-16T14:09:14;1;0;
71221;PMS5003;58965;59.324;18.268;2022-09-16T14:11:34;1;0;
71221;PMS5003;58965;59.324;18.268;2022-09-16T14:14:00;0;0;
71221;PMS5003;58965;59.324;18.268;2022-09-16T14:16:24;0;0;
71221;PMS5003;58965;59.324;18.268;2022-09-16T14:18:52;0;0;
71221;PMS5003;58965;59.324;18.268;2022-09-16T14:21:16;0;0;
71221;PMS5003;58965;59.324;18.268;2022-09-16T14:23:39;0;0;
71221;PMS5003;58965;59.324;18.268;2022-09-16T14:26:12;0;0;
71221;PMS5003;58965;59.324;18.268;2022-09-16T14:28:29;0;0;
71221;PMS5003;58965;59.324;18.268;2022-09-16T14:30:55;1;0;
71221;PMS5003;58965;59.324;18.268;2022-09-16T14:33:21;0;0;
71221;PMS5003;58965;59.324;18.268;2022-09-16T14:35:45;0;0;
71221;PMS5003;58965;59.324;18.268;2022-09-16T14:38:11;0;0;
71221;PMS5003;58965;59.324;18.268;2022-09-16T14:40:35;0;0;
71221;PMS5003;58965;59.324;18.268;2022-09-16T14:43:00;0;0;
71221;PMS5003;58965;59.324;18.268;2022-09-16T14:45:25;0;0;
71221;PMS5003;58965;59.324;18.268;2022-09-16T14:47:50;0;0;
71221;PMS5003;58965;59.324;18.268;2022-09-16T14:50:18;0;0;
71221;PMS5003;58965;59.324;18.268;2022-09-16T14:52:40;0;0;
71221;PMS5003;58965;59.324;18.268;2022-09-16T14:55:06;0;0;
71221;PMS5003;58965;59.324;18.268;2022-09-16T14:57:30;0;0;
71221;PMS5003;58965;59.324;18.268;2022-09-16T14:59:56;0;0;
71221;PMS5003;58965;59.324;18.268;2022-09-16T15:02:21;0;0;
71221;PMS5003;58965;59.324;18.268;2022-09-16T15:04:47;0;0;
71221;PMS5003;58965;59.324;18.268;2022-09-16T15:07:12;0;0;
71221;PMS5003;58965;59.324;18.268;2022-09-16T15:09:37;0;0;
71221;PMS5003;58965;59.324;18.268;2022-09-16T15:12:01;0;0;
71221;PMS5003;58965;59.324;18.268;2022-09-16T15:14:26;0;0;
71221;PMS5003;58965;59.324;18.268;2022-09-16T15:16:52;1;0;
71221;PMS5003;58965;59.324;18.268;2022-09-16T15:19:17;0;0;
71221;PMS5003;58965;59.324;18.268;2022-09-16T15:21:41;0;0;
71221;PMS5003;58965;59.324;18.268;2022-09-16T15:24:14;0;0;
71221;PMS5003;58965;59.324;18.268;2022-09-16T15:26:38;0;0;
71221;PMS5003;58965;59.324;18.268;2022-09-16T15:28:57;0;0;
71221;PMS5003;58965;59.324;18.268;2022-09-16T15:31:25;1;1;
71221;PMS5003;58965;59.324;18.268;2022-09-16T15:33:50;0;0;
71221;PMS5003;58965;59.324;18.268;2022-09-16T15:36:30;0;0;
71221;PMS5003;58965;59.324;18.268;2022-09-16T15:38:37;1;1;
71221;PMS5003;58965;59.324;18.268;2022-09-16T15:41:02;0;0;
71221;PMS5003;58965;59.324;18.268;2022-09-16T15:43:27;0;0;
71221;PMS5003;58965;59.324;18.268;2022-09-16T15:45:56;1;1;
71221;PMS5003;58965;59.324;18.268;2022-09-16T15:48:18;0;0;
71221;PMS5003;58965;59.324;18.268;2022-09-16T15:50:44;1;0;
71221;PMS5003;58965;59.324;18.268;2022-09-16T15:53:08;1;1;
71221;PMS5003;58965;59.324;18.268;2022-09-16T15:55:33;0;0;
71221;PMS5003;58965;59.324;18.268;2022-09-16T15:57:59;0;0;
71221;PMS5003;58965;59.324;18.268;2022-09-16T16:00:23;0;0;
71221;PMS5003;58965;59.324;18.268;2022-09-16T16:02:48;0;0;
71221;PMS5003;58965;59.324;18.268;2022-09-16T16:05:14;0;0;
71221;PMS5003;58965;59.324;18.268;2022-09-16T16:07:39;0;0;
71221;PMS5003;58965;59.324;18.268;2022-09-16T16:10:09;0;0;
71221;PMS5003;58965;59.324;18.268;2022-09-16T16:12:28;0;0;
71221;PMS5003;58965;59.324;18.268;2022-09-16T16:14:53;0;0;
71221;PMS5003;58965;59.324;18.268;2022-09-16T16:17:19;0;0;
71221;PMS5003;58965;59.324;18.268;2022-09-16T16:19:44;0;0;
71221;PMS5003;58965;59.324;18.268;2022-09-16T16:22:09;0;0;
71221;PMS5003;58965;59.324;18.268;2022-09-16T16:24:34;0;0;